createdAt,value
2019-04-05T03:47:11.024Z,72.60
2019-04-05T03:49:38.955Z,72.10
2019-04-05T03:52:06.861Z,72.20
2019-04-05T03:54:34.937Z,75.10
2019-04-05T03:57:02.837Z,72.30
2019-04-05T03:59:30.728Z,74.00
2019-04-05T04:01:58.694Z,73.40
2019-04-05T04:04:26.583Z,73.60
2019-04-05T04:06:54.782Z,73.20
2019-04-05T04:09:22.680Z,70.20
2019-04-05T04:11:50.576Z,72.80
2019-04-05T04:14:18.524Z,72.00
2019-04-05T04:16:46.490Z,69.90
2019-04-05T04:19:14.445Z,70.70
2019-04-05T04:21:47.151Z,71.70
2019-04-05T04:24:15.103Z,75.60
2019-04-05T04:26:43.073Z,76.00
2019-04-05T04:29:11.042Z,75.20
2019-04-05T04:31:38.950Z,75.60
2019-04-05T04:34:06.888Z,71.00
2019-04-05T04:36:34.853Z,68.90
2019-04-05T04:39:04.282Z,70.80
2019-04-05T04:41:32.329Z,72.40
2019-04-05T04:44:00.289Z,71.80
2019-04-05T04:46:28.192Z,70.70
2019-04-05T04:48:56.131Z,72.70
2019-04-05T04:51:24.115Z,70.80
2019-04-05T04:53:51.993Z,70.80
2019-04-05T04:56:20.046Z,73.10
2019-04-05T04:58:48.002Z,76.00
2019-04-05T05:01:15.893Z,74.80
2019-04-05T05:03:43.885Z,73.70
2019-04-05T05:06:11.950Z,75.70
2019-04-05T05:08:40.027Z,76.00
2019-04-05T05:11:14.567Z,75.50
2019-04-05T05:13:37.863Z,77.60
2019-04-05T05:16:05.843Z,75.10
2019-04-05T05:18:33.809Z,74.50
2019-04-05T05:21:01.779Z,70.70
2019-04-05T05:23:29.757Z,70.80
2019-04-05T05:25:57.713Z,74.40
2019-04-05T05:28:25.692Z,76.10
2019-04-05T05:30:53.665Z,76.60
2019-04-05T05:33:21.649Z,75.40
2019-04-05T05:35:49.536Z,77.20
2019-04-05T05:38:17.504Z,78.50
2019-04-05T05:40:45.439Z,74.30
2019-04-05T05:43:13.413Z,75.40
2019-04-05T05:45:41.376Z,73.90
2019-04-05T05:48:09.295Z,74.50
2019-04-05T05:50:37.248Z,74.60
2019-04-05T05:53:05.204Z,75.70
2019-04-05T05:55:33.086Z,73.30
2019-04-05T05:58:01.031Z,73.10
2019-04-05T06:00:31.088Z,74.30
2019-04-05T06:02:58.611Z,72.40
2019-04-05T06:05:26.493Z,72.70
2019-04-05T06:07:54.405Z,74.00
2019-04-05T06:10:22.290Z,72.50
2019-04-05T06:12:50.275Z,73.70
2019-04-05T06:15:18.253Z,76.80
2019-04-05T06:17:46.320Z,77.10
2019-04-05T06:20:14.363Z,77.20
2019-04-05T06:22:42.361Z,77.20
2019-04-05T06:25:10.481Z,75.50
2019-04-05T06:27:38.505Z,73.00
2019-04-05T06:30:06.455Z,71.50
2019-04-05T06:32:34.344Z,66.90
2019-04-05T06:35:02.231Z,68.40
2019-04-05T06:37:30.150Z,68.70
2019-04-05T06:39:58.033Z,69.10
2019-04-05T06:42:25.945Z,71.00
2019-04-05T06:44:53.843Z,71.10
2019-04-05T06:47:21.841Z,73.90
2019-04-05T06:49:49.728Z,75.50
2019-04-05T06:52:17.615Z,73.30
2019-04-05T06:54:45.509Z,71.20
2019-04-05T06:57:13.413Z,72.90
2019-04-05T06:59:41.302Z,70.50
2019-04-05T07:02:09.181Z,70.40
2019-04-05T07:04:37.099Z,71.50
2019-04-05T07:07:04.986Z,71.40
2019-04-05T07:09:34.261Z,70.40
2019-04-05T07:12:02.349Z,70.30
2019-04-05T07:14:30.248Z,68.10
2019-04-05T07:16:58.141Z,71.90
2019-04-05T07:19:26.064Z,70.10
2019-04-05T07:21:53.998Z,67.60
2019-04-05T07:24:22.047Z,65.50
2019-04-05T07:26:49.976Z,67.60
2019-04-05T07:29:17.885Z,68.80
2019-04-05T07:31:45.844Z,71.60
2019-04-05T07:34:13.740Z,70.70
2019-04-05T07:36:41.638Z,69.30
2019-04-05T07:39:12.838Z,72.00
2019-04-05T07:41:40.780Z,69.60
2019-04-05T07:44:08.679Z,68.00
2019-04-05T07:46:36.562Z,70.10
2019-04-05T07:49:04.481Z,69.20
2019-04-05T07:51:32.375Z,67.30
2019-04-05T07:54:00.300Z,69.70
2019-04-05T07:56:28.259Z,68.30
2019-04-05T07:58:56.160Z,68.20
2019-04-05T08:01:24.088Z,71.60
2019-04-05T08:03:52.087Z,67.20
2019-04-05T08:06:20.011Z,69.90
2019-04-05T08:09:07.916Z,68.10
2019-04-05T08:11:35.887Z,69.60
2019-04-05T08:14:03.869Z,65.50
2019-04-05T08:16:31.803Z,64.80
2019-04-05T08:18:59.725Z,65.10
2019-04-05T08:21:27.681Z,70.20
2019-04-05T08:23:55.623Z,69.90
2019-04-05T08:26:23.517Z,67.50
2019-04-05T08:28:51.503Z,66.20
2019-04-05T08:31:19.408Z,68.70
2019-04-05T08:33:47.313Z,63.40
2019-04-05T08:36:15.259Z,63.80
2019-04-05T08:38:43.141Z,66.20
2019-04-05T08:41:11.048Z,65.90
2019-04-05T08:43:38.933Z,65.20
2019-04-05T08:46:06.824Z,66.60
2019-04-05T08:48:34.725Z,64.60
2019-04-05T08:51:02.722Z,60.80
2019-04-05T08:53:30.613Z,66.50
2019-04-05T08:55:58.509Z,65.80
2019-04-05T08:58:33.395Z,70.00
2019-04-05T09:00:56.030Z,66.00
2019-04-05T09:03:23.930Z,63.30
2019-04-05T09:05:51.831Z,66.10
2019-04-05T09:08:21.446Z,62.20
2019-04-05T09:10:49.510Z,66.30
2019-04-05T09:13:17.394Z,62.20
2019-04-05T09:15:45.326Z,64.90
2019-04-05T09:18:13.218Z,67.60
2019-04-05T09:20:41.169Z,63.70
2019-04-05T09:23:09.064Z,61.90
2019-04-05T09:25:37.003Z,60.90
2019-04-05T09:28:04.965Z,60.70
2019-04-05T09:30:32.864Z,62.20
2019-04-05T09:33:00.782Z,62.90
2019-04-05T09:35:28.686Z,64.90
2019-04-05T09:37:57.448Z,62.50
2019-04-05T09:40:25.371Z,64.50
2019-04-05T09:42:53.273Z,64.20
2019-04-05T09:45:21.177Z,63.10
2019-04-05T09:47:49.075Z,62.50
2019-04-05T09:50:17.070Z,62.70
2019-04-05T09:52:44.957Z,59.60
2019-04-05T09:55:12.849Z,61.50
2019-04-05T09:57:40.764Z,61.80
2019-04-05T10:00:10.376Z,61.90
2019-04-05T10:02:38.361Z,61.70
2019-04-05T10:05:06.325Z,62.40
2019-04-05T10:07:34.209Z,61.90
2019-04-05T10:10:02.094Z,63.50
2019-04-05T10:12:29.986Z,60.20
2019-04-05T10:14:57.901Z,63.70
2019-04-05T10:17:25.810Z,63.70
2019-04-05T10:19:53.773Z,59.90
2019-04-05T10:22:21.717Z,58.90
2019-04-05T10:24:49.604Z,58.00
2019-04-05T10:27:17.512Z,61.20
2019-04-05T10:29:45.469Z,61.10
2019-04-05T10:32:13.384Z,64.80
2019-04-05T10:34:41.301Z,63.70
2019-04-05T10:37:09.228Z,62.10
2019-04-05T10:39:37.129Z,59.70
2019-04-05T10:42:06.726Z,61.00
2019-04-05T10:44:34.642Z,60.10
2019-04-05T10:47:02.557Z,60.20
2019-04-05T10:49:30.494Z,61.50
2019-04-05T10:51:58.399Z,53.70
2019-04-05T10:54:26.355Z,55.10
2019-04-05T10:56:54.264Z,54.40
2019-04-05T10:59:22.178Z,55.40
2019-04-05T11:01:50.075Z,55.50
2019-04-05T11:04:18.109Z,58.20
2019-04-05T11:06:46.025Z,55.10
2019-04-05T11:09:13.952Z,55.80
2019-04-05T11:11:41.858Z,54.70
2019-04-05T11:14:13.988Z,54.50
2019-04-05T11:16:41.852Z,53.80
2019-04-05T11:19:09.765Z,55.40
2019-04-05T11:21:37.709Z,54.60
2019-04-05T11:24:06.086Z,55.10
2019-04-05T11:26:33.997Z,54.70
2019-04-05T11:29:01.906Z,56.40
2019-04-05T11:31:29.813Z,60.40
2019-04-05T11:33:57.766Z,58.20
2019-04-05T11:36:25.729Z,54.40
2019-04-05T11:38:53.701Z,54.90
2019-04-05T11:41:21.857Z,58.10
2019-04-05T11:43:49.749Z,60.10
2019-04-05T11:46:18.294Z,56.20
2019-04-05T11:48:46.499Z,58.90
2019-04-05T11:51:14.389Z,56.40
2019-04-05T11:53:42.330Z,56.80
2019-04-05T11:56:14.950Z,56.20
2019-04-05T11:58:41.454Z,54.60
2019-04-05T12:01:13.729Z,58.80
2019-04-05T12:03:41.689Z,56.10
2019-04-05T12:06:09.588Z,54.40
2019-04-05T12:08:37.517Z,55.10
2019-04-05T12:11:05.413Z,54.60
2019-04-05T12:13:33.373Z,53.70
2019-04-05T12:16:01.356Z,56.60
2019-04-05T12:18:29.313Z,54.20
2019-04-05T12:21:00.370Z,55.10
2019-04-05T12:23:26.871Z,53.40
2019-04-05T12:25:54.909Z,55.30
2019-04-05T12:28:22.896Z,55.00
2019-04-05T12:30:51.153Z,57.40
2019-04-05T12:33:19.648Z,55.90
2019-04-05T12:35:51.671Z,55.40
2019-04-05T12:38:31.546Z,54.70
2019-04-05T12:41:00.492Z,54.10
2019-04-05T12:43:28.410Z,52.10
2019-04-05T12:45:56.404Z,51.30
2019-04-05T12:48:24.377Z,51.00
2019-04-05T12:51:01.022Z,51.40
2019-04-05T12:53:21.877Z,51.90
2019-04-05T12:55:51.650Z,55.80
2019-04-05T12:58:19.384Z,56.20
2019-04-05T13:00:47.309Z,51.60
2019-04-05T13:03:15.269Z,51.00
2019-04-05T13:05:43.189Z,50.10
2019-04-05T13:08:11.123Z,51.70
2019-04-05T13:10:39.084Z,50.50
2019-04-05T13:13:07.090Z,51.90
2019-04-05T13:15:34.983Z,50.10
2019-04-05T13:18:03.077Z,50.20
2019-04-05T13:20:31.013Z,52.60
2019-04-05T13:23:02.451Z,49.60
2019-04-05T13:25:28.573Z,49.10
2019-04-05T13:27:56.516Z,49.30
2019-04-05T13:30:24.442Z,47.70
2019-04-05T13:32:53.434Z,49.00
2019-04-05T13:35:22.071Z,51.40
2019-04-05T13:37:50.035Z,51.10
2019-04-05T13:40:17.932Z,50.70
2019-04-05T13:42:45.856Z,50.40
2019-04-05T13:45:13.743Z,47.10
2019-04-05T13:47:41.640Z,46.90
2019-04-05T13:50:11.324Z,50.30
2019-04-05T13:52:49.709Z,48.60
2019-04-05T13:55:17.694Z,46.90
2019-04-05T13:57:45.603Z,48.60
2019-04-05T14:00:17.513Z,52.00
2019-04-05T14:02:43.477Z,52.30
2019-04-05T14:05:11.377Z,51.10
2019-04-05T14:07:39.280Z,51.50
2019-04-05T14:10:10.529Z,46.70
2019-04-05T14:12:37.651Z,47.50
2019-04-05T14:15:06.526Z,50.60
2019-04-05T14:17:34.418Z,48.60
2019-04-05T14:20:02.318Z,48.40
2019-04-05T14:22:30.294Z,45.30
2019-04-05T14:24:58.562Z,48.40
2019-04-05T14:27:26.509Z,45.60
2019-04-05T14:29:54.485Z,47.50
2019-04-05T14:32:22.402Z,45.10
2019-04-05T14:34:54.045Z,46.10
2019-04-05T14:37:22.132Z,46.30
2019-04-05T14:39:49.556Z,47.40
2019-04-05T14:42:17.677Z,49.20
2019-04-05T14:44:45.633Z,50.50
2019-04-05T14:47:13.561Z,51.00
2019-04-05T14:49:41.511Z,50.30
2019-04-05T14:52:09.405Z,49.40
2019-04-05T14:54:37.336Z,50.20
2019-04-05T14:57:05.950Z,49.90
2019-04-05T14:59:34.108Z,48.60
2019-04-05T15:02:02.010Z,50.20
2019-04-05T15:04:29.942Z,52.00
2019-04-05T15:06:57.838Z,48.10
2019-04-05T15:09:25.874Z,47.90
2019-04-05T15:11:53.761Z,49.70
2019-04-05T15:14:21.766Z,49.00
2019-04-05T15:16:49.719Z,48.40
2019-04-05T15:19:17.647Z,49.10
2019-04-05T15:21:45.555Z,50.20
2019-04-05T15:24:15.993Z,49.20
2019-04-05T15:26:43.115Z,47.50
2019-04-05T15:29:11.066Z,47.50
2019-04-05T15:31:38.969Z,47.70
2019-04-05T15:34:06.934Z,49.60
2019-04-05T15:36:34.910Z,49.70
2019-04-05T15:39:02.915Z,49.00
2019-04-05T15:41:30.820Z,50.20
2019-04-05T15:43:58.806Z,50.80
2019-04-05T15:46:27.056Z,48.30
2019-04-05T15:48:54.961Z,47.70
2019-04-05T15:51:24.902Z,45.60
2019-04-05T15:53:52.521Z,47.60
2019-04-05T15:56:20.644Z,46.20
2019-04-05T15:58:48.641Z,46.50
2019-04-05T16:01:16.951Z,49.40
2019-04-05T16:03:44.898Z,48.60
2019-04-05T16:06:12.998Z,47.70
2019-04-05T16:08:41.136Z,47.60
2019-04-05T16:11:09.117Z,45.70
2019-04-05T16:13:37.097Z,46.50
2019-04-05T16:16:05.156Z,48.60
2019-04-05T16:18:33.129Z,46.90
2019-04-05T16:21:01.106Z,49.90
2019-04-05T16:23:29.278Z,46.30
2019-04-05T16:25:57.329Z,46.40
2019-04-05T16:28:25.250Z,48.00
2019-04-05T16:30:53.160Z,47.60
2019-04-05T16:33:21.166Z,46.60
2019-04-05T16:35:49.486Z,46.70
2019-04-05T16:38:17.808Z,46.50
2019-04-05T16:40:45.774Z,50.20
2019-04-05T16:43:13.731Z,49.90
2019-04-05T16:45:42.107Z,49.00
2019-04-05T16:48:10.201Z,47.00
2019-04-05T16:50:38.174Z,46.90
2019-04-05T16:53:06.331Z,48.40
2019-04-05T16:55:34.236Z,49.40
2019-04-05T16:58:02.182Z,49.20
2019-04-05T17:00:30.620Z,50.50
2019-04-05T17:02:58.661Z,50.90
2019-04-05T17:05:26.730Z,49.10
2019-04-05T17:07:54.685Z,50.90
2019-04-05T17:10:22.654Z,50.30
2019-04-05T17:12:50.596Z,51.30
2019-04-05T17:15:18.758Z,52.60
2019-04-05T17:17:46.778Z,51.50
2019-04-05T17:20:14.840Z,51.50
2019-04-05T17:22:42.854Z,50.90
2019-04-05T17:25:12.049Z,52.60
2019-04-05T17:27:40.135Z,50.80
2019-04-05T17:30:08.111Z,52.60
2019-04-05T17:32:36.085Z,50.50
2019-04-05T17:35:05.747Z,51.40
2019-04-05T17:37:34.046Z,52.60
2019-04-05T17:40:02.071Z,51.60
2019-04-05T17:42:30.097Z,52.00
2019-04-05T17:44:58.631Z,52.50
2019-04-05T17:47:26.566Z,53.10
2019-04-05T17:49:54.497Z,54.70
2019-04-05T17:52:22.480Z,52.10
2019-04-05T17:54:50.439Z,52.50
2019-04-05T17:57:18.491Z,51.70
2019-04-05T17:59:46.461Z,50.90
2019-04-05T18:02:14.469Z,52.90
2019-04-05T18:04:42.408Z,53.10
2019-04-05T18:07:10.974Z,53.40
2019-04-05T18:09:38.969Z,53.20
2019-04-05T18:12:08.152Z,52.70
2019-04-05T18:14:36.434Z,54.80
2019-04-05T18:17:04.771Z,54.00
2019-04-05T18:19:32.799Z,54.00
2019-04-05T18:22:00.785Z,56.00
2019-04-05T18:24:28.761Z,55.50
2019-04-05T18:26:56.687Z,56.00
2019-04-05T18:29:24.922Z,54.60
2019-04-05T18:31:52.941Z,55.80
2019-04-05T18:34:20.831Z,56.80
2019-04-05T18:36:49.418Z,56.80
2019-04-05T18:39:17.340Z,56.00
2019-04-05T18:41:45.278Z,55.00
2019-04-05T18:44:13.312Z,54.80
2019-04-05T18:46:41.304Z,54.30
2019-04-05T18:49:09.378Z,55.00
2019-04-05T18:51:37.416Z,54.70
2019-04-05T18:54:05.449Z,55.40
2019-04-05T18:56:33.351Z,54.00
2019-04-05T18:59:01.297Z,54.70
2019-04-05T19:01:29.260Z,55.90
2019-04-05T19:03:57.313Z,55.60
2019-04-05T19:06:25.298Z,56.20
2019-04-05T19:08:53.289Z,56.20
2019-04-05T19:11:21.289Z,55.00
2019-04-05T19:14:00.458Z,55.90
2019-04-05T19:16:18.872Z,57.30
2019-04-05T19:18:48.676Z,56.70
2019-04-05T19:21:16.709Z,56.50
2019-04-05T19:23:50.883Z,57.20
2019-04-05T19:26:14.380Z,57.50
2019-04-05T19:28:42.402Z,56.80
2019-04-05T19:48:37.976Z,57.80
2019-04-05T19:51:05.998Z,59.90
2019-04-05T19:53:34.001Z,60.00
2019-04-05T19:56:01.998Z,59.10
2019-04-05T19:58:29.949Z,58.60
2019-04-05T20:00:59.229Z,59.50
2019-04-05T20:03:27.261Z,58.70
2019-04-05T20:05:55.185Z,59.80
2019-04-05T20:08:23.143Z,59.90
2019-04-05T20:10:51.196Z,59.80
2019-04-05T20:13:19.202Z,59.80
2019-04-05T20:15:47.215Z,59.80
2019-04-05T20:18:15.237Z,57.90
2019-04-05T20:20:43.181Z,59.50
2019-04-05T20:23:11.191Z,59.50
2019-04-05T20:25:39.105Z,60.80
2019-04-05T20:28:07.077Z,61.20
2019-04-05T20:30:37.005Z,62.30
2019-04-05T20:33:05.210Z,62.50
2019-04-05T20:35:34.722Z,62.80
2019-04-05T20:38:03.195Z,61.70
2019-04-05T20:40:31.268Z,61.00
2019-04-05T20:43:00.008Z,61.80
2019-04-05T20:45:28.034Z,61.60
2019-04-05T20:47:56.075Z,62.80
2019-04-05T20:50:24.144Z,61.80
2019-04-05T20:52:52.161Z,61.80
2019-04-05T20:55:20.091Z,63.40
2019-04-05T20:57:48.002Z,63.10
2019-04-05T21:00:16.591Z,62.10
2019-04-05T21:02:44.597Z,63.30
2019-04-05T21:05:12.601Z,63.40
2019-04-05T21:07:41.159Z,64.40
2019-04-05T21:10:11.655Z,65.20
2019-04-05T21:12:40.043Z,65.30
2019-04-05T21:15:08.407Z,65.70
2019-04-05T21:17:36.373Z,65.80
2019-04-05T21:20:05.925Z,66.00
2019-04-05T21:22:34.734Z,65.90
2019-04-05T21:25:02.953Z,66.00
2019-04-05T21:27:33.524Z,66.00
2019-04-05T21:30:01.582Z,66.60
2019-04-05T21:32:29.504Z,67.30
2019-04-05T21:34:57.500Z,66.80
2019-04-05T21:37:25.436Z,67.20
2019-04-05T21:39:53.399Z,67.60
2019-04-05T21:42:21.409Z,67.80
2019-04-05T21:44:49.393Z,68.20
2019-04-05T21:47:17.340Z,68.30
2019-04-05T21:49:45.310Z,68.70
2019-04-05T21:52:13.268Z,69.00
2019-04-05T21:54:47.414Z,69.30
2019-04-05T21:57:10.877Z,68.80
2019-04-05T21:59:38.943Z,68.60
2019-04-05T22:02:11.849Z,68.50
2019-04-05T22:04:40.998Z,68.30
2019-04-05T22:07:10.156Z,68.30
2019-04-05T22:09:38.053Z,68.50
2019-04-05T22:12:06.150Z,69.00
2019-04-05T22:14:35.306Z,68.90
2019-04-05T22:17:03.353Z,69.20
2019-04-05T22:19:32.234Z,69.40
2019-04-05T22:22:00.127Z,69.60
2019-04-05T22:24:28.021Z,70.00
2019-04-05T22:26:55.920Z,70.90
2019-04-05T22:29:23.801Z,71.10
2019-04-05T22:31:51.752Z,70.80
2019-04-05T22:34:22.809Z,70.70
2019-04-05T22:36:50.770Z,71.20
2019-04-05T22:39:18.648Z,71.90
2019-04-05T22:41:46.585Z,71.90
2019-04-05T22:44:14.470Z,71.50
2019-04-05T22:46:43.348Z,71.80
2019-04-05T22:49:12.238Z,72.10
2019-04-05T22:51:40.170Z,72.30
2019-04-05T22:54:08.998Z,73.00
2019-04-05T22:56:37.025Z,72.60
2019-04-05T22:59:04.918Z,72.80
2019-04-05T23:01:34.752Z,73.40
2019-04-05T23:04:02.632Z,73.80
2019-04-05T23:06:30.591Z,73.30
2019-04-05T23:09:15.459Z,73.30
2019-04-05T23:11:43.428Z,73.40
2019-04-05T23:14:11.303Z,73.80
2019-04-05T23:16:45.195Z,73.30
2019-04-05T23:19:13.079Z,72.80
2019-04-05T23:21:44.661Z,71.80
2019-04-05T23:24:13.484Z,72.00
2019-04-05T23:26:42.306Z,72.30
2019-04-05T23:29:16.102Z,72.60
